Time;durP1;ratioP1;P1;durP2;ratioP2;P2;SDS_P1;SDS_P2;PMS_P1;PMS_P2;Temp;Humidity;BMP_temperature;BMP_pressure;BME280_temperature;BME280_humidity;BME280_pressure;Samples;Min_cycle;Max_cycle;Signal;HPM_P1;HPM_P2
2022/12/12 00:00:09;;;;;;;15.67;10.93;;;;;;;;;;5067485;28;20214;-66
2022/12/12 00:02:37;;;;;;;16.70;10.80;;;;;;;;;;5061880;28;20203;-67
2022/12/12 00:05:06;;;;;;;14.53;9.80;;;;;;;;;;5060206;28;20207;-66
2022/12/12 00:07:34;;;;;;;15.70;10.67;;;;;;;;;;5063515;28;20201;-66
2022/12/12 00:10:01;;;;;;;14.83;10.43;;;;;;;;;;5059637;28;20302;-66
2022/12/12 00:12:28;;;;;;;16.53;10.70;;;;;;;;;;5056576;28;20194;-66
2022/12/12 00:14:55;;;;;;;15.27;10.70;;;;;;;;;;5057250;28;20187;-66
2022/12/12 00:17:23;;;;;;;15.27;10.53;;;;;;;;;;5061241;28;20208;-66
2022/12/12 00:19:50;;;;;;;14.50;9.90;;;;;;;;;;5057397;28;20206;-66
2022/12/12 00:22:18;;;;;;;16.67;11.10;;;;;;;;;;5058162;28;20195;-66
2022/12/12 00:24:45;;;;;;;14.73;10.13;;;;;;;;;;5053740;28;20215;-66
2022/12/12 00:27:12;;;;;;;15.40;10.43;;;;;;;;;;5058663;28;20217;-67
2022/12/12 00:29:40;;;;;;;15.57;10.10;;;;;;;;;;5061021;28;20210;-66
2022/12/12 00:32:07;;;;;;;13.53;9.57;;;;;;;;;;5054516;28;20202;-66
2022/12/12 00:34:34;;;;;;;15.07;10.07;;;;;;;;;;5058294;28;20200;-66
2022/12/12 00:37:01;;;;;;;13.97;10.07;;;;;;;;;;5062223;28;20203;-67
2022/12/12 00:39:29;;;;;;;14.47;10.20;;;;;;;;;;5062472;28;20209;-66
2022/12/12 00:41:56;;;;;;;16.13;10.43;;;;;;;;;;5059758;28;20207;-66
2022/12/12 00:44:24;;;;;;;14.60;9.87;;;;;;;;;;5061384;28;20210;-66
2022/12/12 00:46:51;;;;;;;12.77;9.23;;;;;;;;;;5057054;28;20206;-67
2022/12/12 00:49:20;;;;;;;14.17;9.70;;;;;;;;;;5056635;28;20195;-66
2022/12/12 00:51:47;;;;;;;13.83;9.97;;;;;;;;;;5061258;28;20289;-66
2022/12/12 00:54:14;;;;;;;15.00;10.27;;;;;;;;;;5058225;28;20209;-67
2022/12/12 00:56:43;;;;;;;15.20;10.30;;;;;;;;;;5054358;28;20198;-67
2022/12/12 00:59:10;;;;;;;18.07;10.30;;;;;;;;;;5055490;28;20219;-66
2022/12/12 01:01:37;;;;;;;15.37;10.50;;;;;;;;;;5058990;28;20212;-66
2022/12/12 01:04:04;;;;;;;14.67;10.47;;;;;;;;;;5075808;28;20205;-66
2022/12/12 01:06:31;;;;;;;16.20;10.23;;;;;;;;;;5062544;28;20199;-66
2022/12/12 01:08:59;;;;;;;13.60;10.63;;;;;;;;;;5062323;28;20206;-66
2022/12/12 01:11:26;;;;;;;16.70;11.30;;;;;;;;;;5054869;28;20214;-67
2022/12/12 01:13:55;;;;;;;14.70;9.77;;;;;;;;;;5060265;28;20205;-66
2022/12/12 01:16:22;;;;;;;14.50;9.90;;;;;;;;;;5057101;28;20213;-66
2022/12/12 01:18:49;;;;;;;13.00;10.07;;;;;;;;;;5066023;28;20210;-66
2022/12/12 01:21:18;;;;;;;16.03;10.10;;;;;;;;;;5053901;28;20207;-66
2022/12/12 01:23:45;;;;;;;16.67;10.00;;;;;;;;;;5054043;28;20202;-66
2022/12/12 01:26:14;;;;;;;16.20;11.23;;;;;;;;;;5067521;28;20230;-66
2022/12/12 01:28:42;;;;;;;14.33;10.50;;;;;;;;;;5064819;28;20187;-66
2022/12/12 01:31:10;;;;;;;14.33;10.13;;;;;;;;;;5057123;28;20252;-66
2022/12/12 01:33:38;;;;;;;14.93;10.50;;;;;;;;;;5062979;28;20202;-67
2022/12/12 01:36:05;;;;;;;15.20;10.93;;;;;;;;;;5061850;28;20203;-67
2022/12/12 01:38:33;;;;;;;14.87;10.20;;;;;;;;;;5063471;28;20215;-67
2022/12/12 01:41:00;;;;;;;13.97;9.90;;;;;;;;;;5059122;28;20214;-67
2022/12/12 01:43:27;;;;;;;15.50;10.90;;;;;;;;;;5059024;28;20241;-67
2022/12/12 01:46:30;;;;;;;15.30;10.37;;;;;;;;;;5060628;28;20210;-67
2022/12/12 01:48:59;;;;;;;17.57;11.00;;;;;;;;;;5056368;28;20218;-66
2022/12/12 01:51:28;;;;;;;15.07;10.87;;;;;;;;;;5056095;28;20204;-68
2022/12/12 01:53:58;;;;;;;13.93;10.20;;;;;;;;;;5060953;28;20199;-66
2022/12/12 01:56:26;;;;;;;13.87;10.03;;;;;;;;;;5059702;28;20215;-66
2022/12/12 01:58:54;;;;;;;13.50;10.17;;;;;;;;;;5076108;28;20214;-66
2022/12/12 02:01:23;;;;;;;14.33;10.47;;;;;;;;;;5061428;28;20230;-67
2022/12/12 02:03:51;;;;;;;11.47;8.43;;;;;;;;;;5064966;28;20209;-66
2022/12/12 02:06:20;;;;;;;10.60;8.30;;;;;;;;;;5065554;28;20218;-67
2022/12/12 02:08:48;;;;;;;10.30;7.00;;;;;;;;;;5063508;28;20207;-66
2022/12/12 02:11:16;;;;;;;10.93;8.27;;;;;;;;;;5068019;28;20326;-66
2022/12/12 02:13:43;;;;;;;13.77;8.67;;;;;;;;;;5062109;28;20214;-67
2022/12/12 02:16:13;;;;;;;12.00;8.57;;;;;;;;;;5069996;28;20219;-66
2022/12/12 02:18:45;;;;;;;13.13;8.97;;;;;;;;;;5064649;28;20215;-66
2022/12/12 02:21:16;;;;;;;11.93;8.70;;;;;;;;;;5065587;28;20252;-66
2022/12/12 02:24:07;;;;;;;12.67;8.70;;;;;;;;;;5060870;28;20195;-66
2022/12/12 02:27:02;;;;;;;13.17;9.53;;;;;;;;;;5059389;28;20222;-66
2022/12/12 02:29:39;;;;;;;11.47;8.67;;;;;;;;;;5036234;28;20222;-67
2022/12/12 02:32:10;;;;;;;13.07;9.23;;;;;;;;;;5067590;28;20212;-66
2022/12/12 02:34:41;;;;;;;18.00;9.93;;;;;;;;;;5063216;28;20203;-67
2022/12/12 02:37:10;;;;;;;13.27;9.33;;;;;;;;;;5064247;28;20207;-67
2022/12/12 02:39:41;;;;;;;14.13;9.43;;;;;;;;;;5058859;28;20231;-67
2022/12/12 02:42:10;;;;;;;12.90;9.37;;;;;;;;;;5060435;28;20226;-67
2022/12/12 02:44:40;;;;;;;13.07;9.33;;;;;;;;;;5062299;28;20195;-67
2022/12/12 02:47:12;;;;;;;13.20;9.33;;;;;;;;;;5060249;28;20199;-66
2022/12/12 02:49:41;;;;;;;12.33;9.10;;;;;;;;;;5064179;28;20192;-67
2022/12/12 02:52:09;;;;;;;12.67;9.50;;;;;;;;;;5057232;28;20218;-67
2022/12/12 02:54:37;;;;;;;12.50;8.67;;;;;;;;;;5061222;28;20203;-66
2022/12/12 02:57:04;;;;;;;12.53;8.60;;;;;;;;;;5066727;28;20210;-67
2022/12/12 02:59:33;;;;;;;11.27;8.47;;;;;;;;;;5060778;28;20208;-67
2022/12/12 03:02:28;;;;;;;12.93;8.70;;;;;;;;;;5062851;28;20218;-66
2022/12/12 03:07:56;;;;;;;12.77;9.10;;;;;;;;;;5033087;28;20207;-66
2022/12/12 03:10:32;;;;;;;12.97;9.03;;;;;;;;;;5055780;28;20231;-67
2022/12/12 03:13:03;;;;;;;13.40;9.23;;;;;;;;;;5060986;28;20198;-66
2022/12/12 03:15:37;;;;;;;12.03;8.23;;;;;;;;;;5065131;28;20196;-66
2022/12/12 03:18:11;;;;;;;11.43;7.83;;;;;;;;;;5058260;28;20200;-66
2022/12/12 03:20:41;;;;;;;9.37;7.27;;;;;;;;;;5057460;28;20196;-67
2022/12/12 03:23:10;;;;;;;9.50;6.73;;;;;;;;;;5064768;28;20202;-66
2022/12/12 03:25:40;;;;;;;7.70;6.13;;;;;;;;;;5067022;28;20198;-66
2022/12/12 03:28:10;;;;;;;10.13;6.50;;;;;;;;;;5058890;28;20205;-67
2022/12/12 03:30:39;;;;;;;8.90;6.60;;;;;;;;;;5061678;28;20203;-66
2022/12/12 03:33:12;;;;;;;10.13;6.67;;;;;;;;;;5060454;28;20210;-68
2022/12/12 03:35:41;;;;;;;10.17;6.67;;;;;;;;;;5063232;28;20199;-67
2022/12/12 03:38:11;;;;;;;9.87;6.17;;;;;;;;;;5054221;28;20222;-66
2022/12/12 03:40:41;;;;;;;9.40;6.43;;;;;;;;;;5062350;28;20199;-66
2022/12/12 03:43:10;;;;;;;9.20;6.30;;;;;;;;;;5064313;28;20247;-66
2022/12/12 03:45:39;;;;;;;9.47;6.23;;;;;;;;;;5055869;28;20214;-66
2022/12/12 03:48:11;;;;;;;9.27;6.70;;;;;;;;;;5059620;28;20206;-67
2022/12/12 03:50:42;;;;;;;11.80;6.87;;;;;;;;;;5063066;28;20206;-67
2022/12/12 03:53:11;;;;;;;8.50;6.57;;;;;;;;;;5063998;28;20207;-67
2022/12/12 03:55:40;;;;;;;8.43;6.33;;;;;;;;;;5058925;28;20210;-67
2022/12/12 03:58:11;;;;;;;11.23;7.20;;;;;;;;;;5059216;28;20192;-66
2022/12/12 04:00:40;;;;;;;10.07;7.33;;;;;;;;;;5059215;28;20207;-67
2022/12/12 04:03:09;;;;;;;9.97;6.97;;;;;;;;;;5060520;28;20213;-67
2022/12/12 04:06:25;;;;;;;10.27;6.97;;;;;;;;;;5058302;28;20497;-66
2022/12/12 04:08:30;;;;;;;10.03;6.67;;;;;;;;;;5055950;28;20207;-66
2022/12/12 04:13:54;;;;;;;9.40;6.30;;;;;;;;;;5067542;28;20214;-66
2022/12/12 04:16:27;;;;;;;10.43;6.70;;;;;;;;;;5065392;28;20207;-66
2022/12/12 04:18:56;;;;;;;9.77;6.60;;;;;;;;;;5063495;28;20222;-67
2022/12/12 04:24:20;;;;;;;9.27;6.43;;;;;;;;;;5055317;28;20205;-67
2022/12/12 04:26:50;;;;;;;9.27;6.57;;;;;;;;;;5060751;28;20203;-67
2022/12/12 04:29:28;;;;;;;9.10;6.43;;;;;;;;;;5060520;28;20202;-66
2022/12/12 04:31:57;;;;;;;8.70;6.33;;;;;;;;;;5075304;28;20201;-66
2022/12/12 04:34:29;;;;;;;9.70;6.40;;;;;;;;;;5058913;28;20202;-66
2022/12/12 04:36:58;;;;;;;8.77;6.90;;;;;;;;;;5058527;28;20195;-66
2022/12/12 04:39:26;;;;;;;9.40;6.80;;;;;;;;;;5061375;28;20233;-66
2022/12/12 04:41:55;;;;;;;9.30;6.60;;;;;;;;;;5058144;28;20294;-66
2022/12/12 04:44:23;;;;;;;9.90;6.60;;;;;;;;;;5053869;28;20203;-66
2022/12/12 04:46:52;;;;;;;9.23;6.60;;;;;;;;;;5059309;28;20203;-66
2022/12/12 04:49:20;;;;;;;10.27;7.10;;;;;;;;;;5060073;28;20209;-67
2022/12/12 04:51:50;;;;;;;10.30;7.03;;;;;;;;;;5057677;28;20231;-66
2022/12/12 04:54:22;;;;;;;10.23;7.07;;;;;;;;;;5056818;28;20210;-66
2022/12/12 04:56:50;;;;;;;9.57;7.10;;;;;;;;;;5061116;28;20198;-66
2022/12/12 04:59:17;;;;;;;9.13;6.70;;;;;;;;;;5058909;28;20229;-66
2022/12/12 05:01:49;;;;;;;11.63;7.03;;;;;;;;;;5054121;28;20249;-66
2022/12/12 05:04:19;;;;;;;9.07;7.07;;;;;;;;;;5058091;28;20206;-67
2022/12/12 05:06:48;;;;;;;11.43;7.23;;;;;;;;;;5057874;28;20210;-66
2022/12/12 05:09:16;;;;;;;12.00;7.57;;;;;;;;;;5059184;28;20206;-67
2022/12/12 05:11:45;;;;;;;10.67;6.93;;;;;;;;;;5058202;28;20196;-66
2022/12/12 05:14:15;;;;;;;9.67;6.93;;;;;;;;;;5054221;28;20206;-66
2022/12/12 05:16:44;;;;;;;9.07;7.20;;;;;;;;;;5054124;28;20207;-67
2022/12/12 05:19:11;;;;;;;10.87;7.70;;;;;;;;;;5061202;28;20211;-66
2022/12/12 05:21:38;;;;;;;9.47;7.17;;;;;;;;;;5059849;28;20206;-66
2022/12/12 05:24:05;;;;;;;10.13;7.20;;;;;;;;;;5061413;28;20206;-66
2022/12/12 05:26:33;;;;;;;10.40;7.67;;;;;;;;;;5058685;28;20225;-66
2022/12/12 05:29:02;;;;;;;10.43;7.30;;;;;;;;;;5061532;28;20187;-66
2022/12/12 05:31:30;;;;;;;10.97;7.70;;;;;;;;;;5055610;28;20203;-67
2022/12/12 05:33:57;;;;;;;11.00;7.53;;;;;;;;;;5065417;28;20199;-66
2022/12/12 05:36:24;;;;;;;11.30;7.87;;;;;;;;;;5062239;28;20203;-67
2022/12/12 05:38:51;;;;;;;11.07;7.70;;;;;;;;;;5055735;28;20269;-66
2022/12/12 05:41:18;;;;;;;10.93;7.47;;;;;;;;;;5065157;28;20209;-67
2022/12/12 05:43:46;;;;;;;11.33;7.67;;;;;;;;;;5057330;28;20235;-66
2022/12/12 05:46:14;;;;;;;11.10;7.63;;;;;;;;;;5063022;28;20203;-67
2022/12/12 05:48:42;;;;;;;8.63;6.70;;;;;;;;;;5060700;28;20206;-66
2022/12/12 05:51:09;;;;;;;8.87;6.73;;;;;;;;;;5057364;28;20211;-67
2022/12/12 05:53:36;;;;;;;9.37;7.00;;;;;;;;;;5056736;28;20200;-66
2022/12/12 05:56:05;;;;;;;10.23;7.40;;;;;;;;;;5066880;28;20199;-67
2022/12/12 05:58:32;;;;;;;12.93;8.20;;;;;;;;;;5063282;28;20218;-68
2022/12/12 06:00:59;;;;;;;10.63;7.83;;;;;;;;;;5060465;28;20196;-67
2022/12/12 06:03:28;;;;;;;11.10;7.87;;;;;;;;;;5058140;28;20206;-67
2022/12/12 06:05:55;;;;;;;10.83;7.93;;;;;;;;;;5064644;28;20202;-66
2022/12/12 06:08:22;;;;;;;10.93;7.70;;;;;;;;;;5072315;28;20221;-67
2022/12/12 06:10:49;;;;;;;12.23;7.97;;;;;;;;;;5061191;28;20199;-67
2022/12/12 06:13:16;;;;;;;10.37;7.17;;;;;;;;;;5068102;28;20214;-66
2022/12/12 06:15:43;;;;;;;10.50;7.73;;;;;;;;;;5060820;28;20207;-67
2022/12/12 06:18:11;;;;;;;12.13;8.33;;;;;;;;;;5058293;28;20195;-67
2022/12/12 06:20:39;;;;;;;10.80;7.97;;;;;;;;;;5062711;28;20258;-66
2022/12/12 06:23:06;;;;;;;10.33;7.47;;;;;;;;;;5065355;28;20199;-67
2022/12/12 06:25:34;;;;;;;9.67;7.07;;;;;;;;;;5056266;28;20219;-66
2022/12/12 06:28:01;;;;;;;10.93;7.87;;;;;;;;;;5056725;28;20237;-66
2022/12/12 06:30:28;;;;;;;9.90;6.97;;;;;;;;;;5062295;28;20199;-67
2022/12/12 06:32:55;;;;;;;10.33;7.80;;;;;;;;;;5067105;28;20210;-67
2022/12/12 06:35:22;;;;;;;9.70;7.23;;;;;;;;;;5055175;28;20204;-66
2022/12/12 06:37:51;;;;;;;11.80;8.13;;;;;;;;;;5058157;28;20209;-66
2022/12/12 06:40:18;;;;;;;10.50;7.43;;;;;;;;;;5062859;28;20222;-66
2022/12/12 06:42:45;;;;;;;10.23;6.67;;;;;;;;;;5060586;28;20235;-66
2022/12/12 06:45:12;;;;;;;11.37;7.33;;;;;;;;;;5072320;28;20209;-66
2022/12/12 06:47:39;;;;;;;10.77;7.17;;;;;;;;;;5071842;28;20207;-66
2022/12/12 06:50:07;;;;;;;12.87;7.60;;;;;;;;;;5058035;28;20195;-66
2022/12/12 06:52:34;;;;;;;10.73;7.10;;;;;;;;;;5063197;28;20196;-66
2022/12/12 06:55:02;;;;;;;10.03;7.17;;;;;;;;;;5068823;28;20209;-66
2022/12/12 06:57:29;;;;;;;9.17;6.60;;;;;;;;;;5066139;28;20198;-66
2022/12/12 06:59:57;;;;;;;9.60;7.17;;;;;;;;;;5058032;28;20227;-66
2022/12/12 07:02:24;;;;;;;10.80;7.43;;;;;;;;;;5061221;28;20199;-66
2022/12/12 07:04:51;;;;;;;10.73;7.97;;;;;;;;;;5055718;28;20262;-67
2022/12/12 07:07:18;;;;;;;9.87;7.40;;;;;;;;;;5055325;28;20208;-66
2022/12/12 07:09:45;;;;;;;10.40;7.67;;;;;;;;;;5060190;28;20202;-67
2022/12/12 07:12:14;;;;;;;12.67;9.03;;;;;;;;;;5065175;28;20207;-65
2022/12/12 07:14:41;;;;;;;18.00;11.07;;;;;;;;;;5059338;28;20205;-66
2022/12/12 07:17:08;;;;;;;12.57;8.83;;;;;;;;;;5065961;28;20195;-65
2022/12/12 07:19:35;;;;;;;10.70;7.27;;;;;;;;;;5066292;28;20214;-65
2022/12/12 07:22:02;;;;;;;10.30;7.23;;;;;;;;;;5062134;28;20214;-65
2022/12/12 07:24:29;;;;;;;8.93;6.80;;;;;;;;;;5058144;28;20405;-65
2022/12/12 07:26:57;;;;;;;11.20;6.43;;;;;;;;;;5064253;28;20205;-66
2022/12/12 07:29:25;;;;;;;9.87;7.27;;;;;;;;;;5058911;28;20199;-65
2022/12/12 07:31:52;;;;;;;9.67;6.70;;;;;;;;;;5061245;28;20204;-65
2022/12/12 07:34:19;;;;;;;10.63;6.80;;;;;;;;;;5063834;28;20207;-65
2022/12/12 07:36:46;;;;;;;9.23;7.13;;;;;;;;;;5058830;28;20199;-65
2022/12/12 07:39:14;;;;;;;10.10;7.10;;;;;;;;;;5063833;28;20203;-65
2022/12/12 07:41:41;;;;;;;10.87;7.47;;;;;;;;;;5058386;28;20204;-65
2022/12/12 07:44:08;;;;;;;8.77;7.03;;;;;;;;;;5059735;28;20238;-65
2022/12/12 07:46:36;;;;;;;10.27;7.30;;;;;;;;;;5063103;28;20266;-65
2022/12/12 07:49:04;;;;;;;10.00;6.77;;;;;;;;;;5062437;28;20225;-65
2022/12/12 07:51:31;;;;;;;10.63;7.50;;;;;;;;;;5062902;28;20207;-65
2022/12/12 07:53:58;;;;;;;8.30;6.73;;;;;;;;;;5066033;28;20201;-65
2022/12/12 07:56:25;;;;;;;9.40;6.83;;;;;;;;;;5058806;28;20203;-65
2022/12/12 07:58:54;;;;;;;9.53;6.83;;;;;;;;;;5067173;28;20235;-65
2022/12/12 08:01:22;;;;;;;9.77;7.03;;;;;;;;;;5056532;28;20223;-65
2022/12/12 08:03:51;;;;;;;13.33;7.60;;;;;;;;;;5058564;28;20199;-65
2022/12/12 08:06:19;;;;;;;9.73;7.13;;;;;;;;;;5055590;28;20214;-65
2022/12/12 08:08:46;;;;;;;11.30;7.80;;;;;;;;;;5060117;28;20241;-65
2022/12/12 08:11:14;;;;;;;10.97;7.93;;;;;;;;;;5056065;28;20212;-66
2022/12/12 08:13:41;;;;;;;9.43;7.13;;;;;;;;;;5057772;28;20220;-66
2022/12/12 08:16:12;;;;;;;9.57;7.57;;;;;;;;;;5059204;28;20210;-66
2022/12/12 08:18:40;;;;;;;11.33;8.03;;;;;;;;;;5060363;28;20203;-66
2022/12/12 08:21:09;;;;;;;10.07;7.63;;;;;;;;;;5053964;28;20229;-66
2022/12/12 08:23:36;;;;;;;12.03;8.10;;;;;;;;;;5057739;28;20210;-67
2022/12/12 08:26:04;;;;;;;9.50;7.40;;;;;;;;;;5060393;28;20206;-66
2022/12/12 08:28:31;;;;;;;10.93;7.40;;;;;;;;;;5062081;28;20260;-66
2022/12/12 08:30:59;;;;;;;11.43;7.80;;;;;;;;;;5072819;28;20224;-66
2022/12/12 08:33:26;;;;;;;10.57;7.90;;;;;;;;;;5060307;28;20274;-66
2022/12/12 08:35:53;;;;;;;11.13;7.60;;;;;;;;;;5068851;28;20297;-66
2022/12/12 08:38:21;;;;;;;10.50;8.00;;;;;;;;;;5059448;28;20208;-66
2022/12/12 08:40:49;;;;;;;11.97;8.37;;;;;;;;;;5067073;28;20215;-66
2022/12/12 08:43:16;;;;;;;12.80;8.30;;;;;;;;;;5055332;28;20239;-65
2022/12/12 08:45:43;;;;;;;12.20;8.27;;;;;;;;;;5056183;28;20217;-66
2022/12/12 08:48:12;;;;;;;10.30;8.17;;;;;;;;;;5062058;28;20203;-66
2022/12/12 08:50:40;;;;;;;10.63;7.80;;;;;;;;;;5058903;28;20199;-66
2022/12/12 08:53:07;;;;;;;11.90;8.47;;;;;;;;;;5059427;28;20203;-66
2022/12/12 08:55:36;;;;;;;12.20;8.23;;;;;;;;;;5055515;28;20223;-67
2022/12/12 08:58:03;;;;;;;13.50;8.87;;;;;;;;;;5060556;28;20214;-66
2022/12/12 09:00:30;;;;;;;11.07;7.90;;;;;;;;;;5058659;28;20215;-66
2022/12/12 09:02:57;;;;;;;11.27;8.33;;;;;;;;;;5063222;28;20205;-67
2022/12/12 09:05:24;;;;;;;9.87;7.40;;;;;;;;;;5055040;28;20210;-66
2022/12/12 09:07:51;;;;;;;9.70;7.30;;;;;;;;;;5058001;28;20210;-66
2022/12/12 09:10:19;;;;;;;10.87;7.67;;;;;;;;;;5057085;28;20213;-67
2022/12/12 09:12:47;;;;;;;9.77;7.20;;;;;;;;;;5058064;28;20200;-67
2022/12/12 09:15:15;;;;;;;10.83;7.87;;;;;;;;;;5064092;28;20206;-67
2022/12/12 09:17:42;;;;;;;10.80;7.47;;;;;;;;;;5072095;28;20202;-66
2022/12/12 09:20:09;;;;;;;11.87;7.97;;;;;;;;;;5052339;28;20223;-67
2022/12/12 09:22:37;;;;;;;10.97;7.87;;;;;;;;;;5055250;28;20293;-66
2022/12/12 09:25:04;;;;;;;9.47;7.13;;;;;;;;;;5056110;28;20203;-66
2022/12/12 09:27:31;;;;;;;9.57;7.20;;;;;;;;;;5061876;28;20204;-65
2022/12/12 09:30:00;;;;;;;12.07;8.33;;;;;;;;;;5062708;28;20206;-64
2022/12/12 09:32:27;;;;;;;12.07;7.73;;;;;;;;;;5055769;28;20202;-65
2022/12/12 09:34:54;;;;;;;10.37;7.43;;;;;;;;;;5060329;28;20221;-65
2022/12/12 09:37:21;;;;;;;10.90;7.63;;;;;;;;;;5063856;28;20213;-64
2022/12/12 09:39:48;;;;;;;11.03;8.20;;;;;;;;;;5063054;28;20211;-65
2022/12/12 09:42:21;;;;;;;11.03;7.50;;;;;;;;;;5057129;28;20207;-65
2022/12/12 09:44:48;;;;;;;10.23;7.83;;;;;;;;;;5051725;28;20206;-65
2022/12/12 09:47:20;;;;;;;10.60;8.07;;;;;;;;;;5064548;28;20230;-65
2022/12/12 09:49:48;;;;;;;12.00;7.67;;;;;;;;;;5068242;28;20217;-65
2022/12/12 09:52:16;;;;;;;11.50;7.63;;;;;;;;;;5059166;28;20211;-65
2022/12/12 09:54:44;;;;;;;10.33;7.60;;;;;;;;;;5057929;28;20207;-65
2022/12/12 09:57:23;;;;;;;11.33;7.13;;;;;;;;;;5061600;28;20210;-65
2022/12/12 09:59:52;;;;;;;10.00;7.60;;;;;;;;;;5057792;28;20229;-65
2022/12/12 10:02:28;;;;;;;13.30;8.60;;;;;;;;;;5065893;28;20207;-65
2022/12/12 10:05:00;;;;;;;12.03;7.63;;;;;;;;;;5053020;28;20466;-65
2022/12/12 10:07:30;;;;;;;12.97;7.70;;;;;;;;;;5059395;28;20225;-65
2022/12/12 10:10:02;;;;;;;9.57;7.00;;;;;;;;;;5059316;28;20211;-65
2022/12/12 10:12:29;;;;;;;11.70;7.83;;;;;;;;;;5061239;28;20203;-65
2022/12/12 10:14:58;;;;;;;10.03;8.30;;;;;;;;;;5058185;28;20234;-65
2022/12/12 10:17:29;;;;;;;10.10;7.27;;;;;;;;;;5055674;28;20229;-65
2022/12/12 10:19:59;;;;;;;9.57;7.63;;;;;;;;;;5064626;28;20218;-64
2022/12/12 10:22:30;;;;;;;8.80;7.20;;;;;;;;;;5056591;28;20204;-65
2022/12/12 10:25:00;;;;;;;11.10;7.87;;;;;;;;;;5058764;28;20203;-66
2022/12/12 10:27:27;;;;;;;9.80;7.77;;;;;;;;;;5066834;28;20387;-64
2022/12/12 10:29:54;;;;;;;11.07;8.13;;;;;;;;;;5058442;28;20216;-65
2022/12/12 10:32:27;;;;;;;10.37;8.10;;;;;;;;;;5059044;28;20204;-65
2022/12/12 10:35:02;;;;;;;10.77;7.73;;;;;;;;;;5066960;28;20205;-65
2022/12/12 10:37:37;;;;;;;9.80;7.80;;;;;;;;;;5065069;28;20202;-65
2022/12/12 10:40:18;;;;;;;11.37;8.00;;;;;;;;;;5059557;28;20209;-64
2022/12/12 10:42:49;;;;;;;11.13;7.50;;;;;;;;;;5059008;28;20257;-65
2022/12/12 10:45:31;;;;;;;11.57;8.00;;;;;;;;;;5059469;28;20211;-65
2022/12/12 10:47:58;;;;;;;8.80;6.73;;;;;;;;;;5062634;28;20199;-65
2022/12/12 10:50:29;;;;;;;10.90;7.50;;;;;;;;;;5062721;28;20203;-65
2022/12/12 10:52:56;;;;;;;8.23;6.70;;;;;;;;;;5060134;28;20291;-65
2022/12/12 10:55:26;;;;;;;11.97;6.97;;;;;;;;;;5061794;28;20210;-65
2022/12/12 10:58:02;;;;;;;8.50;6.57;;;;;;;;;;5057874;28;20352;-66
2022/12/12 11:00:30;;;;;;;8.50;6.80;;;;;;;;;;5063651;28;20288;-65
2022/12/12 11:02:58;;;;;;;9.43;7.53;;;;;;;;;;5058101;28;20209;-65
2022/12/12 11:05:27;;;;;;;10.43;7.07;;;;;;;;;;5056813;28;20211;-65
2022/12/12 11:08:01;;;;;;;8.57;7.13;;;;;;;;;;5060446;28;20196;-66
2022/12/12 11:10:29;;;;;;;9.40;7.03;;;;;;;;;;5062239;28;20206;-65
2022/12/12 11:12:57;;;;;;;10.17;7.40;;;;;;;;;;5058236;28;20217;-65
2022/12/12 11:15:28;;;;;;;9.87;7.47;;;;;;;;;;5064720;28;20217;-65
2022/12/12 11:17:56;;;;;;;11.47;7.83;;;;;;;;;;5059493;28;20238;-64
2022/12/12 11:20:24;;;;;;;8.63;6.90;;;;;;;;;;5063599;28;20210;-65
2022/12/12 11:22:53;;;;;;;9.73;7.23;;;;;;;;;;5056109;28;20239;-65
2022/12/12 11:25:25;;;;;;;9.63;7.00;;;;;;;;;;5055172;28;20199;-65
2022/12/12 11:27:53;;;;;;;8.70;6.93;;;;;;;;;;5064623;28;20199;-65
2022/12/12 11:30:24;;;;;;;8.67;7.20;;;;;;;;;;5068297;28;20207;-64
2022/12/12 11:32:53;;;;;;;8.63;6.80;;;;;;;;;;5053732;28;20200;-64
2022/12/12 11:35:24;;;;;;;10.30;7.53;;;;;;;;;;5059881;28;20224;-65
2022/12/12 11:37:52;;;;;;;10.57;7.73;;;;;;;;;;5057426;28;20211;-64
2022/12/12 11:40:24;;;;;;;9.07;7.07;;;;;;;;;;5055215;28;20207;-65
2022/12/12 11:42:52;;;;;;;9.20;7.20;;;;;;;;;;5062206;28;20266;-64
2022/12/12 11:45:22;;;;;;;8.57;7.00;;;;;;;;;;5059089;28;20206;-65
2022/12/12 11:47:49;;;;;;;10.33;8.27;;;;;;;;;;5059420;28;20214;-65
2022/12/12 11:50:18;;;;;;;11.60;8.33;;;;;;;;;;5062827;28;20207;-66
2022/12/12 11:52:45;;;;;;;14.73;10.90;;;;;;;;;;5064539;28;20200;-65
2022/12/12 11:55:14;;;;;;;9.67;7.10;;;;;;;;;;5060043;28;20210;-65
2022/12/12 11:57:50;;;;;;;8.73;6.07;;;;;;;;;;5064378;28;20205;-64
2022/12/12 12:00:32;;;;;;;8.60;6.20;;;;;;;;;;5057721;28;20215;-65
2022/12/12 12:03:20;;;;;;;7.73;6.17;;;;;;;;;;5064713;28;20203;-65
2022/12/12 12:05:51;;;;;;;9.23;6.47;;;;;;;;;;5060406;28;20199;-65
2022/12/12 12:08:24;;;;;;;8.50;6.53;;;;;;;;;;5062448;28;20230;-65
2022/12/12 12:10:57;;;;;;;8.23;6.60;;;;;;;;;;5063407;28;20199;-64
2022/12/12 12:13:33;;;;;;;8.70;6.20;;;;;;;;;;5062915;28;20211;-65
2022/12/12 12:16:06;;;;;;;8.70;6.43;;;;;;;;;;5062760;28;20199;-64
2022/12/12 12:18:42;;;;;;;7.67;5.80;;;;;;;;;;5060798;28;20209;-64
2022/12/12 12:21:17;;;;;;;7.90;6.37;;;;;;;;;;5058909;28;20206;-64
2022/12/12 12:23:48;;;;;;;16.07;11.93;;;;;;;;;;5059711;28;20194;-64
2022/12/12 12:26:19;;;;;;;19.90;13.97;;;;;;;;;;5059960;28;20206;-65
2022/12/12 12:29:01;;;;;;;12.40;8.83;;;;;;;;;;5061514;28;20228;-64
2022/12/12 12:31:33;;;;;;;15.80;11.90;;;;;;;;;;5058605;28;20203;-64
2022/12/12 12:34:05;;;;;;;9.30;7.43;;;;;;;;;;5057364;28;20207;-64
2022/12/12 12:36:36;;;;;;;24.10;17.73;;;;;;;;;;5062864;28;20210;-64
2022/12/12 12:39:06;;;;;;;11.37;9.30;;;;;;;;;;5057365;28;20209;-64
2022/12/12 12:41:40;;;;;;;12.20;9.27;;;;;;;;;;5058525;28;20297;-64
2022/12/12 12:44:14;;;;;;;10.93;8.10;;;;;;;;;;5060732;28;20232;-64
2022/12/12 12:46:47;;;;;;;11.67;9.37;;;;;;;;;;5060593;28;20203;-64
2022/12/12 12:49:16;;;;;;;23.00;17.67;;;;;;;;;;5057928;28;20292;-64
2022/12/12 12:51:46;;;;;;;14.00;10.93;;;;;;;;;;5061361;28;20191;-65
2022/12/12 12:54:17;;;;;;;17.40;13.83;;;;;;;;;;5060503;28;20202;-64
2022/12/12 12:56:46;;;;;;;9.57;7.70;;;;;;;;;;5064115;28;20209;-64
2022/12/12 12:59:16;;;;;;;11.43;7.53;;;;;;;;;;5060594;28;20265;-64
2022/12/12 13:01:46;;;;;;;11.90;9.40;;;;;;;;;;5061511;28;20223;-64
2022/12/12 13:04:15;;;;;;;10.03;7.67;;;;;;;;;;5062326;28;20349;-64
2022/12/12 13:06:45;;;;;;;8.70;6.73;;;;;;;;;;5054866;28;20199;-65
2022/12/12 13:09:28;;;;;;;8.90;6.47;;;;;;;;;;5054308;28;20209;-64
2022/12/12 13:11:58;;;;;;;11.43;7.63;;;;;;;;;;5057271;28;20199;-64
2022/12/12 13:14:29;;;;;;;9.10;6.50;;;;;;;;;;5054228;28;20203;-64
2022/12/12 13:17:00;;;;;;;8.80;6.70;;;;;;;;;;5056760;28;20432;-64
2022/12/12 13:19:31;;;;;;;7.63;6.10;;;;;;;;;;5058846;28;20237;-65
2022/12/12 13:22:01;;;;;;;7.93;6.20;;;;;;;;;;5067921;28;20219;-65
2022/12/12 13:24:31;;;;;;;8.37;6.70;;;;;;;;;;5056921;28;20203;-64
2022/12/12 13:27:02;;;;;;;12.57;8.60;;;;;;;;;;5054234;28;20205;-64
2022/12/12 13:29:34;;;;;;;10.87;7.73;;;;;;;;;;5058187;28;20203;-64
2022/12/12 13:32:30;;;;;;;11.73;9.07;;;;;;;;;;5054802;28;20213;-65
2022/12/12 13:34:59;;;;;;;9.70;7.60;;;;;;;;;;5056644;28;20210;-64
2022/12/12 13:37:26;;;;;;;13.83;9.63;;;;;;;;;;5065248;28;20232;-65
2022/12/12 13:39:59;;;;;;;19.37;12.47;;;;;;;;;;5061082;28;20207;-65
2022/12/12 13:42:26;;;;;;;28.60;18.27;;;;;;;;;;5059939;28;20230;-64
2022/12/12 13:44:53;;;;;;;30.10;18.63;;;;;;;;;;5063559;28;20287;-65
2022/12/12 13:47:38;;;;;;;14.67;10.40;;;;;;;;;;5056215;28;20233;-65
2022/12/12 13:50:19;;;;;;;18.60;11.13;;;;;;;;;;5061960;28;20209;-65
2022/12/12 13:53:06;;;;;;;12.83;9.57;;;;;;;;;;5061025;28;20203;-65
2022/12/12 13:55:33;;;;;;;9.53;6.83;;;;;;;;;;5063672;28;20318;-64
2022/12/12 13:58:06;;;;;;;8.80;6.70;;;;;;;;;;5061541;28;20203;-65
2022/12/12 14:00:34;;;;;;;11.83;7.03;;;;;;;;;;5072889;28;20198;-65
2022/12/12 14:03:03;;;;;;;7.00;5.50;;;;;;;;;;5061969;28;20214;-64
2022/12/12 14:05:33;;;;;;;8.23;5.73;;;;;;;;;;5061669;28;20199;-65
2022/12/12 14:08:06;;;;;;;8.53;6.00;;;;;;;;;;5061107;28;20221;-65
2022/12/12 14:10:34;;;;;;;9.90;5.83;;;;;;;;;;5064358;28;20203;-65
2022/12/12 14:13:18;;;;;;;8.13;5.80;;;;;;;;;;5060279;28;20194;-65
2022/12/12 14:15:46;;;;;;;9.10;5.57;;;;;;;;;;5060601;28;20218;-65
2022/12/12 14:18:19;;;;;;;8.43;6.40;;;;;;;;;;5064489;28;20222;-65
2022/12/12 14:20:53;;;;;;;8.03;5.90;;;;;;;;;;5063764;28;20595;-66
2022/12/12 14:23:25;;;;;;;6.90;5.50;;;;;;;;;;5055175;28;20219;-64
2022/12/12 14:25:52;;;;;;;11.83;7.23;;;;;;;;;;5068064;28;20206;-65
2022/12/12 14:28:21;;;;;;;11.37;7.20;;;;;;;;;;5062194;28;20207;-64
2022/12/12 14:30:55;;;;;;;13.07;7.27;;;;;;;;;;5056984;28;20203;-65
2022/12/12 14:33:43;;;;;;;15.63;7.50;;;;;;;;;;5055730;28;20214;-65
2022/12/12 14:36:22;;;;;;;9.23;6.10;;;;;;;;;;5064900;28;20203;-64
2022/12/12 14:38:54;;;;;;;7.27;5.40;;;;;;;;;;5058962;28;20215;-65
2022/12/12 14:41:28;;;;;;;7.97;5.30;;;;;;;;;;5061770;28;20204;-65
2022/12/12 14:43:57;;;;;;;8.03;5.30;;;;;;;;;;5066213;28;20233;-65
2022/12/12 14:46:24;;;;;;;6.70;5.23;;;;;;;;;;5062219;28;20207;-65
2022/12/12 14:49:02;;;;;;;6.73;5.17;;;;;;;;;;5061919;28;20200;-65
2022/12/12 14:51:34;;;;;;;6.80;5.40;;;;;;;;;;5059904;28;20265;-65
2022/12/12 14:54:02;;;;;;;9.20;5.83;;;;;;;;;;5066553;28;20202;-65
2022/12/12 14:56:30;;;;;;;7.57;5.27;;;;;;;;;;5060490;28;20204;-65